createdAt,value
2023-01-20T00:01:20.030Z,97749.53
2023-01-20T00:03:48.004Z,97752.13
2023-01-20T00:06:14.983Z,97743.06
2023-01-20T00:08:41.688Z,97751.50
2023-01-20T00:11:11.177Z,97741.44
2023-01-20T00:13:39.039Z,97733.66
2023-01-20T00:16:08.204Z,97741.13
2023-01-20T00:18:35.436Z,97751.19
2023-01-20T00:21:04.363Z,97744.69
2023-01-20T00:23:31.495Z,97742.56
2023-01-20T00:25:58.084Z,97742.75
2023-01-20T00:28:24.692Z,97747.94
2023-01-20T00:30:51.286Z,97751.34
2023-01-20T00:33:17.922Z,97753.78
2023-01-20T00:35:44.491Z,97761.91
2023-01-20T00:38:11.034Z,97765.34
2023-01-20T00:40:37.589Z,97772.00
2023-01-20T00:43:04.281Z,97775.22
2023-01-20T00:45:30.846Z,97765.16
2023-01-20T00:47:57.409Z,97770.50
2023-01-20T00:50:24.006Z,97775.69
2023-01-20T00:52:50.569Z,97773.94
2023-01-20T00:55:17.143Z,97774.91
2023-01-20T00:57:43.669Z,97768.56
2023-01-20T01:00:10.742Z,97771.31
2023-01-20T01:02:39.679Z,97773.13
2023-01-20T01:05:06.733Z,97772.28
2023-01-20T01:07:33.301Z,97779.59
2023-01-20T01:09:59.913Z,97776.03
2023-01-20T01:12:26.526Z,97780.25
2023-01-20T01:14:53.134Z,97786.41
2023-01-20T01:17:19.766Z,97790.13
2023-01-20T01:19:46.291Z,97795.97
2023-01-20T01:22:12.815Z,97809.25
2023-01-20T01:24:39.431Z,97815.91
2023-01-20T01:27:05.996Z,97817.69
2023-01-20T01:29:32.579Z,97816.53
2023-01-20T01:31:59.153Z,97822.41
2023-01-20T01:34:25.709Z,97827.72
2023-01-20T01:36:52.268Z,97829.53
2023-01-20T01:39:18.865Z,97834.03
2023-01-20T01:41:45.461Z,97836.81
2023-01-20T01:44:14.112Z,97842.47
2023-01-20T01:46:41.688Z,97839.22
2023-01-20T01:49:09.241Z,97845.25
2023-01-20T01:51:41.648Z,97853.16
2023-01-20T01:54:13.251Z,97854.78
2023-01-20T01:56:42.286Z,97862.41
2023-01-20T01:59:09.648Z,97862.41
2023-01-20T02:01:39.984Z,97858.41
2023-01-20T02:04:11.214Z,97858.88
2023-01-20T02:06:41.801Z,97861.19
2023-01-20T02:09:08.731Z,97863.47
2023-01-20T02:11:48.633Z,97876.59
2023-01-20T02:14:17.725Z,97870.78
2023-01-20T02:17:14.880Z,97877.72
2023-01-20T02:20:12.259Z,97870.09
2023-01-20T02:22:54.065Z,97866.03
2023-01-20T02:25:40.503Z,97870.88
2023-01-20T02:28:23.230Z,97863.44
2023-01-20T02:31:11.622Z,97874.94
2023-01-20T02:33:52.892Z,97865.69
2023-01-20T02:36:34.821Z,97869.75
2023-01-20T02:39:26.954Z,97866.38
2023-01-20T02:42:08.014Z,97866.03
2023-01-20T02:44:46.870Z,97857.28
2023-01-20T02:47:33.931Z,97845.63
2023-01-20T02:50:00.533Z,97854.72
2023-01-20T02:52:31.442Z,97856.50
2023-01-20T02:55:04.149Z,97858.94
2023-01-20T02:57:40.579Z,97860.69
2023-01-20T03:00:12.385Z,97854.22
2023-01-20T03:02:41.808Z,97861.19
2023-01-20T03:05:14.581Z,97864.44
2023-01-20T03:07:45.722Z,97864.44
2023-01-20T03:10:16.577Z,97873.84
2023-01-20T03:12:51.119Z,97872.22
2023-01-20T03:15:23.476Z,97874.34
2023-01-20T03:17:50.598Z,97869.81
2023-01-20T03:20:17.520Z,97866.25
2023-01-20T03:22:44.107Z,97868.38
2023-01-20T03:25:13.733Z,97864.16
2023-01-20T03:27:42.243Z,97865.44
2023-01-20T03:30:16.960Z,97864.47
2023-01-20T03:32:47.302Z,97856.69
2023-01-20T03:35:16.501Z,97850.97
2023-01-20T03:37:44.645Z,97851.94
2023-01-20T03:40:13.025Z,97844.66
2023-01-20T03:43:00.108Z,97854.09
2023-01-20T03:45:33.254Z,97846.13
2023-01-20T03:48:00.768Z,97850.03
2023-01-20T03:50:47.174Z,97857.03
2023-01-20T03:53:17.935Z,97853.78
2023-01-20T03:55:52.247Z,97849.53
2023-01-20T03:58:29.496Z,97855.06
2023-01-20T04:00:57.803Z,97854.72
2023-01-20T04:03:31.439Z,97851.44
2023-01-20T04:06:00.709Z,97847.44
2023-01-20T04:08:35.460Z,97854.38
2023-01-20T04:11:06.296Z,97850.81
2023-01-20T04:13:33.070Z,97857.03
2023-01-20T04:16:02.096Z,97850.66
2023-01-20T04:18:29.124Z,97863.81
2023-01-20T04:21:01.470Z,97862.22
2023-01-20T04:23:34.551Z,97872.28
2023-01-20T04:26:01.201Z,97872.44
2023-01-20T04:28:27.845Z,97876.00
2023-01-20T04:30:54.463Z,97876.97
2023-01-20T04:33:21.159Z,97874.53
2023-01-20T04:35:47.772Z,97876.16
2023-01-20T04:38:14.383Z,97879.72
2023-01-20T04:40:41.306Z,97879.88
2023-01-20T04:43:10.047Z,97881.19
2023-01-20T04:45:36.641Z,97877.94
2023-01-20T04:48:07.533Z,97878.94
2023-01-20T04:50:38.871Z,97881.66
2023-01-20T04:53:05.617Z,97893.84
2023-01-20T04:55:33.217Z,97891.25
2023-01-20T04:57:59.769Z,97900.22
2023-01-20T05:00:26.318Z,97908.97
2023-01-20T05:02:52.989Z,97908.13
2023-01-20T05:05:19.538Z,97899.38
2023-01-20T05:07:46.137Z,97908.31
2023-01-20T05:10:13.344Z,97903.63
2023-01-20T05:12:41.362Z,97913.22
2023-01-20T05:15:08.401Z,97915.63
2023-01-20T05:17:35.004Z,97913.22
2023-01-20T05:20:01.590Z,97915.94
2023-01-20T05:22:29.517Z,97918.88
2023-01-20T05:24:56.162Z,97920.84
2023-01-20T05:27:22.699Z,97923.25
2023-01-20T05:29:49.280Z,97920.66
2023-01-20T05:32:15.904Z,97919.81
2023-01-20T05:34:42.624Z,97925.00
2023-01-20T05:37:09.223Z,97930.69
2023-01-20T05:39:35.809Z,97932.47
2023-01-20T05:42:02.686Z,97940.13
2023-01-20T05:44:29.318Z,97940.75
2023-01-20T05:46:55.851Z,97944.03
2023-01-20T05:49:22.471Z,97949.69
2023-01-20T05:51:49.026Z,97948.38
2023-01-20T05:54:15.693Z,97951.50
2023-01-20T05:56:42.329Z,97959.13
2023-01-20T05:59:09.768Z,97962.84
2023-01-20T06:01:36.691Z,97965.78
2023-01-20T06:04:03.416Z,97974.09
2023-01-20T06:06:30.042Z,97968.25
2023-01-20T06:08:56.644Z,97968.25
2023-01-20T06:11:23.629Z,97976.88
2023-01-20T06:13:50.670Z,97973.31
2023-01-20T06:16:18.037Z,97979.47
2023-01-20T06:18:44.723Z,97985.78
2023-01-20T06:21:11.684Z,97987.09
2023-01-20T06:23:38.408Z,97987.25
2023-01-20T06:26:07.837Z,97989.97
2023-01-20T06:28:34.856Z,97995.13
2023-01-20T06:31:05.216Z,97995.28
2023-01-20T06:33:33.179Z,98005.84
2023-01-20T06:36:00.098Z,98013.63
2023-01-20T06:38:29.995Z,98016.88
2023-01-20T06:40:58.815Z,98013.50
2023-01-20T06:43:25.787Z,98016.25
2023-01-20T06:45:52.383Z,98022.28
2023-01-20T06:48:18.959Z,98024.41
2023-01-20T06:50:45.517Z,98026.69
2023-01-20T06:53:12.079Z,98038.88
2023-01-20T06:55:38.651Z,98043.25
2023-01-20T06:58:05.211Z,98049.88
2023-01-20T07:00:31.872Z,98060.09
2023-01-20T07:02:58.452Z,98060.41
2023-01-20T07:05:24.983Z,98057.38
2023-01-20T07:07:51.539Z,98062.84
2023-01-20T07:10:18.242Z,98063.56
2023-01-20T07:12:44.862Z,98067.19
2023-01-20T07:15:11.789Z,98068.78
2023-01-20T07:17:38.355Z,98074.28
2023-01-20T07:20:05.322Z,98078.81
2023-01-20T07:22:31.895Z,98082.53
2023-01-20T07:24:58.489Z,98079.66
2023-01-20T07:27:25.102Z,98083.06
2023-01-20T07:29:51.678Z,98078.53
2023-01-20T07:32:18.291Z,98089.28
2023-01-20T07:34:44.879Z,98090.25
2023-01-20T07:37:11.536Z,98084.38
2023-01-20T07:39:38.215Z,98084.88
2023-01-20T07:42:04.876Z,98085.38
2023-01-20T07:44:32.804Z,98087.63
2023-01-20T07:46:59.517Z,98085.84
2023-01-20T07:49:26.269Z,98081.00
2023-01-20T07:51:52.878Z,98089.63
2023-01-20T07:54:22.650Z,98089.28
2023-01-20T07:56:49.231Z,98092.22
2023-01-20T07:59:18.985Z,98089.13
2023-01-20T08:01:45.732Z,98096.06
2023-01-20T08:04:13.209Z,98101.16
2023-01-20T08:06:40.019Z,98092.22
2023-01-20T08:09:09.658Z,98094.50
2023-01-20T08:11:36.237Z,98098.59
2023-01-20T08:14:02.795Z,98097.44
2023-01-20T08:16:29.464Z,98102.47
2023-01-20T08:18:56.097Z,98097.63
2023-01-20T08:21:26.615Z,98107.69
2023-01-20T08:23:55.654Z,98107.72
2023-01-20T08:26:24.938Z,98110.50
2023-01-20T08:28:52.116Z,98112.75
2023-01-20T08:31:21.392Z,98112.28
2023-01-20T08:33:48.867Z,98112.09
2023-01-20T08:36:18.425Z,98116.34
2023-01-20T08:38:45.483Z,98122.97
2023-01-20T08:41:16.416Z,98120.72
2023-01-20T08:43:43.623Z,98122.50
2023-01-20T08:46:12.874Z,98133.25
2023-01-20T08:48:41.582Z,98133.91
2023-01-20T08:51:14.369Z,98128.84
2023-01-20T08:53:42.088Z,98142.00
2023-01-20T08:56:09.772Z,98139.09
2023-01-20T08:58:36.578Z,98136.50
2023-01-20T09:01:08.644Z,98144.13
2023-01-20T09:03:35.356Z,98144.84
2023-01-20T09:06:03.452Z,98152.78
2023-01-20T09:08:30.636Z,98155.38
2023-01-20T09:11:14.069Z,98162.88
2023-01-20T09:13:41.313Z,98163.22
2023-01-20T09:16:11.042Z,98162.88
2023-01-20T09:18:37.700Z,98164.72
2023-01-20T09:21:06.839Z,98169.09
2023-01-20T09:23:35.399Z,98169.72
2023-01-20T09:26:04.682Z,98168.41
2023-01-20T09:28:31.446Z,98176.69
2023-01-20T09:31:04.455Z,98178.81
2023-01-20T09:33:32.336Z,98175.94
2023-01-20T09:36:00.209Z,98175.09
2023-01-20T09:38:42.910Z,98178.53
2023-01-20T09:41:24.640Z,98171.97
2023-01-20T09:44:04.448Z,98180.28
2023-01-20T09:46:37.930Z,98182.91
2023-01-20T09:49:44.389Z,98192.50
2023-01-20T09:52:38.948Z,98187.47
2023-01-20T09:55:14.191Z,98186.63
2023-01-20T09:57:48.888Z,98192.38
2023-01-20T10:00:21.851Z,98190.38
2023-01-20T10:02:54.295Z,98189.72
2023-01-20T10:05:25.775Z,98188.13
2023-01-20T10:07:58.458Z,98195.44
2023-01-20T10:10:31.030Z,98194.97
2023-01-20T10:13:19.492Z,98188.97
2023-01-20T10:15:52.742Z,98187.66
2023-01-20T10:18:28.592Z,98196.59
2023-01-20T10:21:12.657Z,98195.47
2023-01-20T10:23:55.067Z,98203.44
2023-01-20T10:26:42.234Z,98196.44
2023-01-20T10:29:17.487Z,98196.75
2023-01-20T10:31:52.220Z,98200.50
2023-01-20T10:34:20.869Z,98194.81
2023-01-20T10:36:56.183Z,98194.00
2023-01-20T10:39:31.087Z,98190.78
2023-01-20T10:42:12.330Z,98190.09
2023-01-20T10:44:39.729Z,98189.31
2023-01-20T10:47:17.527Z,98184.44
2023-01-20T10:49:52.867Z,98185.25
2023-01-20T10:52:35.026Z,98187.34
2023-01-20T10:55:25.077Z,98181.53
2023-01-20T10:58:00.637Z,98181.03
2023-01-20T11:00:30.171Z,98175.34
2023-01-20T11:03:00.059Z,98180.41
2023-01-20T11:05:31.148Z,98176.19
2023-01-20T11:08:00.406Z,98175.88
2023-01-20T11:10:29.653Z,98173.47
2023-01-20T11:12:59.696Z,98167.41
2023-01-20T11:15:33.710Z,98173.47
2023-01-20T11:18:15.579Z,98171.16
2023-01-20T11:20:46.968Z,98172.78
2023-01-20T11:23:44.198Z,98167.75
2023-01-20T11:26:29.183Z,98173.75
2023-01-20T11:29:00.427Z,98169.84
2023-01-20T11:31:47.701Z,98175.72
2023-01-20T11:34:31.317Z,98162.88
2023-01-20T11:37:19.770Z,98172.81
2023-01-20T11:40:00.595Z,98168.28
2023-01-20T11:42:30.854Z,98158.53
2023-01-20T11:45:19.801Z,98171.53
2023-01-20T11:48:00.792Z,98168.09
2023-01-20T11:50:30.121Z,98167.31
2023-01-20T11:53:16.649Z,98175.44
2023-01-20T11:55:53.658Z,98165.22
2023-01-20T11:58:24.911Z,98165.69
2023-01-20T12:01:08.007Z,98170.59
2023-01-20T12:04:05.222Z,98174.00
2023-01-20T12:06:43.380Z,98172.84
2023-01-20T12:09:15.724Z,98171.03
2023-01-20T12:11:56.395Z,98161.59
2023-01-20T12:14:29.774Z,98166.97
2023-01-20T12:17:05.518Z,98163.25
2023-01-20T12:19:41.008Z,98160.63
2023-01-20T12:22:14.476Z,98165.53
2023-01-20T12:25:07.367Z,98172.53
2023-01-20T12:27:36.912Z,98173.34
2023-01-20T12:30:16.489Z,98171.88
2023-01-20T12:32:43.254Z,98175.28
2023-01-20T12:35:14.627Z,98176.59
2023-01-20T12:37:50.364Z,98175.78
2023-01-20T12:40:35.542Z,98181.47
2023-01-20T12:43:09.279Z,98176.91
2023-01-20T12:45:53.240Z,98180.19
2023-01-20T12:48:35.570Z,98186.69
2023-01-20T12:51:22.652Z,98180.19
2023-01-20T12:54:10.824Z,98182.16
2023-01-20T12:56:47.614Z,98182.97
2023-01-20T12:59:25.060Z,98181.66
2023-01-20T13:01:59.903Z,98184.44
2023-01-20T13:04:56.958Z,98186.03
2023-01-20T13:07:52.569Z,98191.56
2023-01-20T13:10:42.241Z,98195.00
2023-01-20T13:13:17.965Z,98190.09
2023-01-20T13:15:48.509Z,98190.28
2023-01-20T13:18:37.019Z,98191.59
2023-01-20T13:21:03.750Z,98198.25
2023-01-20T13:23:35.600Z,98198.75
2023-01-20T13:26:05.186Z,98197.63
2023-01-20T13:28:32.250Z,98209.34
2023-01-20T13:31:00.576Z,98195.66
2023-01-20T13:33:42.708Z,98204.75
2023-01-20T13:36:17.935Z,98201.19
2023-01-20T13:38:45.590Z,98206.72
2023-01-20T13:41:32.556Z,98207.69
2023-01-20T13:43:59.095Z,98215.19
2023-01-20T13:46:44.329Z,98218.28
2023-01-20T13:49:13.190Z,98217.97
2023-01-20T13:51:45.998Z,98217.16
2023-01-20T13:54:35.408Z,98218.78
2023-01-20T13:57:35.653Z,98224.28
2023-01-20T14:00:08.017Z,98222.38
2023-01-20T14:02:37.463Z,98223.81
2023-01-20T14:05:18.573Z,98233.59
2023-01-20T14:07:45.262Z,98225.63
2023-01-20T14:10:12.593Z,98229.22
2023-01-20T14:12:41.427Z,98234.09
2023-01-20T14:15:25.626Z,98241.56
2023-01-20T14:17:55.204Z,98243.03
2023-01-20T14:20:24.042Z,98231.94
2023-01-20T14:22:50.691Z,98227.06
2023-01-20T14:25:26.848Z,98235.56
2023-01-20T14:27:53.583Z,98243.50
2023-01-20T14:30:26.193Z,98243.53
2023-01-20T14:32:53.626Z,98235.72
2023-01-20T14:35:28.987Z,98247.44
2023-01-20T14:37:55.798Z,98244.50
2023-01-20T14:40:37.685Z,98251.97
2023-01-20T14:43:14.389Z,98252.31
2023-01-20T14:45:45.108Z,98253.44
2023-01-20T14:48:24.739Z,98252.66
2023-01-20T14:51:02.607Z,98265.50
2023-01-20T14:53:29.259Z,98264.34
2023-01-20T14:56:01.208Z,98266.63
2023-01-20T14:58:30.568Z,98272.66
2023-01-20T15:01:02.145Z,98268.75
2023-01-20T15:03:30.129Z,98276.72
2023-01-20T15:05:58.463Z,98276.41
2023-01-20T15:08:26.722Z,98274.63
2023-01-20T15:11:09.859Z,98284.03
2023-01-20T15:13:38.988Z,98293.03
2023-01-20T15:16:18.017Z,98289.13
2023-01-20T15:19:05.225Z,98295.59
2023-01-20T15:21:35.311Z,98302.28
2023-01-20T15:24:17.297Z,98307.50
2023-01-20T15:26:45.345Z,98308.94
2023-01-20T15:29:29.915Z,98307.31
2023-01-20T15:31:58.747Z,98309.97
2023-01-20T15:34:27.530Z,98317.28
2023-01-20T15:36:55.729Z,98315.47
2023-01-20T15:39:25.971Z,98315.16
2023-01-20T15:41:55.760Z,98320.03
2023-01-20T15:44:24.373Z,98319.03
2023-01-20T15:46:51.727Z,98320.19
2023-01-20T15:49:18.776Z,98322.31
2023-01-20T15:51:45.568Z,98328.97
2023-01-20T15:54:13.746Z,98330.47
2023-01-20T15:56:45.142Z,98339.06
2023-01-20T15:59:12.437Z,98334.34
2023-01-20T16:01:42.677Z,98338.22
2023-01-20T16:04:09.511Z,98345.06
2023-01-20T16:06:37.565Z,98341.50
2023-01-20T16:09:16.727Z,98348.47
2023-01-20T16:11:43.309Z,98345.06
2023-01-20T16:14:09.864Z,98348.03
2023-01-20T16:16:36.602Z,98349.16
2023-01-20T16:19:04.721Z,98350.63
2023-01-20T16:21:31.979Z,98352.28
2023-01-20T16:23:59.024Z,98357.66
2023-01-20T16:26:28.288Z,98346.72
2023-01-20T16:28:57.408Z,98346.44
2023-01-20T16:31:25.550Z,98342.53
2023-01-20T16:33:53.424Z,98349.50
2023-01-20T16:36:23.125Z,98353.22
2023-01-20T16:38:50.633Z,98350.13
2023-01-20T16:41:25.931Z,98354.53
2023-01-20T16:43:54.058Z,98352.53
2023-01-20T16:46:22.254Z,98354.53
2023-01-20T16:48:49.601Z,98358.75
2023-01-20T16:51:18.999Z,98367.38
2023-01-20T16:53:45.631Z,98366.75
2023-01-20T16:56:15.208Z,98373.56
2023-01-20T16:58:42.464Z,98374.22
2023-01-20T17:01:12.079Z,98380.09
2023-01-20T17:03:39.996Z,98382.50
2023-01-20T17:06:11.032Z,98386.75
2023-01-20T17:08:37.680Z,98398.81
2023-01-20T17:11:04.401Z,98389.88
2023-01-20T17:13:30.988Z,98394.44
2023-01-20T17:15:59.226Z,98398.47
2023-01-20T17:18:25.854Z,98398.19
2023-01-20T17:20:55.734Z,98398.97
2023-01-20T17:23:22.310Z,98397.50
2023-01-20T17:25:48.919Z,98400.28
2023-01-20T17:28:15.561Z,98396.38
2023-01-20T17:30:42.234Z,98397.34
2023-01-20T17:33:08.835Z,98397.66
2023-01-20T17:35:35.418Z,98399.59
2023-01-20T17:38:01.998Z,98399.75
2023-01-20T17:40:28.626Z,98400.44
2023-01-20T17:42:55.301Z,98402.06
2023-01-20T17:45:21.918Z,98406.00
2023-01-20T17:47:51.191Z,98410.22
2023-01-20T17:50:18.398Z,98409.25
2023-01-20T17:52:45.105Z,98405.22
2023-01-20T17:55:11.749Z,98415.09
2023-01-20T17:57:38.309Z,98414.78
2023-01-20T18:00:06.325Z,98416.72
2023-01-20T18:02:32.961Z,98418.66
2023-01-20T18:04:59.606Z,98418.31
2023-01-20T18:07:26.198Z,98423.19
2023-01-20T18:09:52.838Z,98422.03
2023-01-20T18:12:21.496Z,98422.56
2023-01-20T18:14:48.173Z,98418.00
2023-01-20T18:17:14.805Z,98421.56
2023-01-20T18:19:41.407Z,98418.31
2023-01-20T18:22:10.280Z,98415.38
2023-01-20T18:24:37.014Z,98416.34
2023-01-20T18:27:03.659Z,98415.56
2023-01-20T18:29:30.241Z,98418.16
2023-01-20T18:31:58.175Z,98409.03
2023-01-20T18:34:25.000Z,98413.28
2023-01-20T18:36:51.955Z,98411.97
2023-01-20T18:39:21.120Z,98415.88
2023-01-20T18:41:48.659Z,98409.03
2023-01-20T18:44:16.182Z,98412.75
2023-01-20T18:46:42.856Z,98417.66
2023-01-20T18:49:13.649Z,98413.09
2023-01-20T18:51:42.318Z,98410.50
2023-01-20T18:54:12.416Z,98414.75
2023-01-20T18:56:40.057Z,98418.00
2023-01-20T18:59:07.542Z,98412.59
2023-01-20T19:01:36.804Z,98418.97
2023-01-20T19:04:04.555Z,98412.78
2023-01-20T19:06:35.024Z,98420.44
2023-01-20T19:09:01.798Z,98420.44
2023-01-20T19:11:31.645Z,98424.03
2023-01-20T19:13:59.176Z,98422.59
2023-01-20T19:16:29.231Z,98425.34
2023-01-20T19:18:57.920Z,98419.31
2023-01-20T19:21:25.741Z,98424.84
2023-01-20T19:23:55.015Z,98425.84
2023-01-20T19:26:23.714Z,98426.50
2023-01-20T19:29:11.797Z,98431.41
2023-01-20T19:31:40.086Z,98426.19
2023-01-20T19:34:08.272Z,98424.72
2023-01-20T19:36:35.210Z,98434.66
2023-01-20T19:39:01.942Z,98431.22
2023-01-20T19:41:33.236Z,98434.16
2023-01-20T19:44:01.267Z,98435.03
2023-01-20T19:46:30.110Z,98440.84
2023-01-20T19:48:58.348Z,98440.47
2023-01-20T19:51:25.835Z,98445.00
2023-01-20T19:53:58.145Z,98446.28
2023-01-20T19:56:26.848Z,98442.41
2023-01-20T19:58:57.855Z,98445.00
2023-01-20T20:01:31.811Z,98448.59
2023-01-20T20:03:59.550Z,98447.13
2023-01-20T20:06:46.179Z,98433.78
2023-01-20T20:09:17.649Z,98440.66
2023-01-20T20:11:44.703Z,98438.75
2023-01-20T20:14:13.964Z,98438.53
2023-01-20T20:16:40.989Z,98438.66
2023-01-20T20:19:11.424Z,98443.44
2023-01-20T20:21:38.045Z,98443.88
2023-01-20T20:24:06.155Z,98450.03
2023-01-20T20:26:36.138Z,98451.50
2023-01-20T20:29:04.837Z,98443.34
2023-01-20T20:31:32.293Z,98445.28
2023-01-20T20:33:59.931Z,98452.59
2023-01-20T20:36:29.504Z,98451.97
2023-01-20T20:38:57.776Z,98457.19
2023-01-20T20:41:28.893Z,98455.38
2023-01-20T20:43:57.562Z,98445.63
2023-01-20T20:46:25.381Z,98458.66
2023-01-20T20:48:54.783Z,98455.38
2023-01-20T20:51:23.773Z,98457.63
2023-01-20T20:53:53.967Z,98454.06
2023-01-20T20:56:20.872Z,98455.03
2023-01-20T20:59:00.565Z,98458.75
2023-01-20T21:01:29.500Z,98452.22
2023-01-20T21:03:57.890Z,98446.56
2023-01-20T21:06:24.951Z,98452.91
2023-01-20T21:08:51.979Z,98447.91
2023-01-20T21:11:20.125Z,98454.06
2023-01-20T21:13:49.138Z,98455.03
2023-01-20T21:16:20.728Z,98449.38
2023-01-20T21:18:47.832Z,98457.34
2023-01-20T21:21:17.486Z,98454.06
2023-01-20T21:23:48.631Z,98456.84
2023-01-20T21:26:15.573Z,98446.28
2023-01-20T21:28:43.075Z,98456.50
2023-01-20T21:31:11.373Z,98454.22
2023-01-20T21:33:39.001Z,98470.03
2023-01-20T21:36:07.322Z,98467.13
2023-01-20T21:38:34.075Z,98464.47
2023-01-20T21:41:04.973Z,98466.84
2023-01-20T21:43:48.767Z,98465.81
2023-01-20T21:46:15.758Z,98473.25
2023-01-20T21:48:57.758Z,98468.53
2023-01-20T21:51:39.604Z,98482.06
2023-01-20T21:54:06.156Z,98474.38
2023-01-20T21:56:32.763Z,98480.28
2023-01-20T21:58:59.308Z,98480.16
2023-01-20T22:01:25.920Z,98484.19
2023-01-20T22:03:52.502Z,98477.19
2023-01-20T22:06:19.146Z,98481.16
2023-01-20T22:08:45.757Z,98489.28
2023-01-20T22:11:12.305Z,98485.34
2023-01-20T22:13:38.882Z,98486.97
2023-01-20T22:16:06.036Z,98482.09
2023-01-20T22:18:32.630Z,98482.09
2023-01-20T22:21:02.225Z,98488.97
2023-01-20T22:23:31.542Z,98487.66
2023-01-20T22:25:58.162Z,98488.97
2023-01-20T22:28:24.884Z,98489.75
2023-01-20T22:30:51.656Z,98483.38
2023-01-20T22:33:18.228Z,98493.13
2023-01-20T22:35:44.774Z,98488.44
2023-01-20T22:38:11.356Z,98483.88
2023-01-20T22:40:37.904Z,98482.31
2023-01-20T22:43:04.647Z,98482.25
2023-01-20T22:45:31.255Z,98481.59
2023-01-20T22:47:57.947Z,98483.88
2023-01-20T22:50:24.472Z,98481.47
2023-01-20T22:52:51.030Z,98489.97
2023-01-20T22:55:17.594Z,98487.50
2023-01-20T22:57:44.250Z,98482.31
2023-01-20T23:00:12.197Z,98486.56
2023-01-20T23:02:39.161Z,98489.59
2023-01-20T23:05:05.936Z,98485.50
2023-01-20T23:07:34.705Z,98488.97
2023-01-20T23:10:01.305Z,98493.03
2023-01-20T23:12:28.128Z,98497.06
2023-01-20T23:15:02.655Z,98495.66
2023-01-20T23:17:31.065Z,98489.09
2023-01-20T23:19:58.187Z,98490.88
2023-01-20T23:22:24.785Z,98492.53
2023-01-20T23:24:51.398Z,98489.91
2023-01-20T23:27:17.997Z,98496.41
2023-01-20T23:29:44.608Z,98498.13
2023-01-20T23:32:11.185Z,98500.13
2023-01-20T23:34:37.762Z,98498.81
2023-01-20T23:37:04.368Z,98493.72
2023-01-20T23:39:30.977Z,98496.34
2023-01-20T23:41:57.933Z,98497.94
2023-01-20T23:44:24.494Z,98492.88
2023-01-20T23:46:51.073Z,98491.13
2023-01-20T23:49:17.633Z,98487.13
2023-01-20T23:51:44.196Z,98496.56
2023-01-20T23:54:13.279Z,98507.28
2023-01-20T23:56:40.175Z,98503.69
2023-01-20T23:59:09.959Z,98502.53
